createdAt,value
2022-10-25T00:01:27.595Z,14.80
2022-10-25T00:03:56.076Z,14.60
2022-10-25T00:06:24.345Z,14.10
2022-10-25T00:08:52.277Z,14.00
2022-10-25T00:11:22.889Z,13.70
2022-10-25T00:13:53.190Z,13.70
2022-10-25T00:16:25.509Z,13.00
2022-10-25T00:18:53.912Z,13.90
2022-10-25T00:21:22.338Z,14.20
2022-10-25T00:23:50.916Z,14.20
2022-10-25T00:26:19.966Z,13.90
2022-10-25T00:28:48.641Z,13.60
2022-10-25T00:31:17.532Z,13.40
2022-10-25T00:33:45.701Z,12.60
2022-10-25T00:36:17.152Z,13.60
2022-10-25T00:38:46.147Z,13.20
2022-10-25T00:41:17.862Z,13.50
2022-10-25T00:43:48.582Z,14.70
2022-10-25T00:48:57.588Z,14.30
2022-10-25T00:51:33.576Z,13.80
2022-10-25T00:54:01.735Z,13.90
2022-10-25T00:56:33.518Z,13.40
2022-10-25T00:59:04.409Z,12.90
2022-10-25T01:04:05.008Z,14.30
2022-10-25T01:07:02.546Z,15.60
2022-10-25T01:09:32.982Z,15.00
2022-10-25T01:12:00.912Z,16.10
2022-10-25T01:14:29.817Z,16.50
2022-10-25T01:17:19.024Z,16.50
2022-10-25T01:19:49.921Z,15.60
2022-10-25T01:25:09.930Z,16.20
2022-10-25T01:30:31.238Z,13.80
2022-10-25T01:32:59.015Z,13.40
2022-10-25T01:35:30.995Z,13.00
2022-10-25T01:38:15.401Z,13.90
2022-10-25T01:40:53.097Z,14.20
2022-10-25T01:43:51.706Z,13.70
2022-10-25T01:46:34.739Z,13.80
2022-10-25T01:49:11.076Z,13.00
2022-10-25T01:51:39.060Z,12.80
2022-10-25T01:54:27.805Z,12.40
2022-10-25T01:57:25.493Z,12.50
2022-10-25T02:00:14.250Z,11.10
2022-10-25T02:02:45.324Z,11.80
2022-10-25T02:05:27.625Z,11.80
2022-10-25T02:08:08.840Z,13.50
2022-10-25T02:10:44.010Z,11.80
2022-10-25T02:13:28.545Z,13.10
2022-10-25T02:16:23.627Z,12.30
2022-10-25T02:18:59.173Z,11.50
2022-10-25T02:21:28.706Z,11.90
2022-10-25T02:23:59.909Z,14.20
2022-10-25T02:26:28.186Z,14.10
2022-10-25T02:28:57.098Z,13.70
2022-10-25T02:31:26.477Z,14.10
2022-10-25T02:33:54.345Z,13.70
2022-10-25T02:36:23.999Z,13.90
2022-10-25T02:38:53.338Z,12.50
2022-10-25T02:41:22.405Z,13.20
2022-10-25T02:43:50.360Z,12.40
2022-10-25T02:46:20.813Z,11.80
2022-10-25T02:48:49.692Z,11.90
2022-10-25T02:51:18.437Z,11.20
2022-10-25T02:53:46.776Z,11.30
2022-10-25T02:56:17.926Z,11.20
2022-10-25T02:58:47.366Z,11.20
2022-10-25T03:01:17.143Z,10.80
2022-10-25T03:03:45.279Z,11.00
2022-10-25T03:06:14.342Z,10.90
2022-10-25T03:08:42.962Z,10.60
2022-10-25T03:11:12.464Z,9.90
2022-10-25T03:13:40.364Z,10.50
2022-10-25T03:16:08.985Z,10.70
2022-10-25T03:18:37.315Z,12.10
2022-10-25T03:21:05.678Z,11.20
2022-10-25T03:23:33.696Z,11.80
2022-10-25T03:26:01.580Z,11.50
2022-10-25T03:28:30.451Z,11.90
2022-10-25T03:30:59.965Z,12.60
2022-10-25T03:33:28.165Z,13.30
2022-10-25T03:35:56.966Z,13.40
2022-10-25T03:38:24.709Z,12.00
2022-10-25T03:40:53.521Z,12.40
2022-10-25T03:45:49.084Z,12.30
2022-10-25T03:48:16.987Z,12.90
2022-10-25T03:50:44.903Z,14.40
2022-10-25T03:53:12.647Z,14.20
2022-10-25T03:55:40.494Z,12.30
2022-10-25T03:58:08.162Z,11.20
2022-10-25T04:00:36.050Z,10.90
2022-10-25T04:03:04.033Z,11.40
2022-10-25T04:05:32.457Z,11.00
2022-10-25T04:08:00.361Z,12.80
2022-10-25T04:10:28.275Z,14.60
2022-10-25T04:12:56.039Z,14.40
2022-10-25T04:15:24.562Z,14.60
2022-10-25T04:17:53.124Z,14.70
2022-10-25T04:20:21.719Z,12.50
2022-10-25T04:22:55.188Z,12.90
2022-10-25T04:25:25.326Z,10.90
2022-10-25T04:27:53.614Z,10.30
2022-10-25T04:30:21.659Z,10.20
2022-10-25T04:32:49.873Z,10.00
2022-10-25T04:35:18.092Z,9.40
2022-10-25T04:37:45.934Z,9.30
2022-10-25T04:40:13.733Z,9.70
2022-10-25T04:42:41.675Z,9.70
2022-10-25T04:45:10.397Z,10.20
2022-10-25T04:47:38.363Z,10.30
2022-10-25T04:50:06.915Z,10.60
2022-10-25T04:52:34.675Z,10.60
2022-10-25T04:55:02.550Z,11.70
2022-10-25T04:57:30.722Z,12.00
2022-10-25T04:59:59.231Z,11.60
2022-10-25T05:02:27.273Z,11.70
2022-10-25T05:04:55.117Z,12.10
2022-10-25T05:07:22.932Z,12.10
2022-10-25T05:09:50.729Z,12.60
2022-10-25T05:12:18.491Z,13.70
2022-10-25T05:14:46.887Z,13.00
2022-10-25T05:17:14.740Z,13.30
2022-10-25T05:19:42.550Z,12.80
2022-10-25T05:22:10.257Z,14.30
2022-10-25T05:24:37.978Z,15.30
2022-10-25T05:27:05.726Z,13.70
2022-10-25T05:29:33.522Z,21.60
2022-10-25T05:32:01.325Z,14.90
2022-10-25T05:34:29.320Z,16.20
2022-10-25T05:36:57.830Z,15.80
2022-10-25T05:39:25.646Z,16.00
2022-10-25T05:41:53.481Z,16.40
2022-10-25T05:44:21.238Z,17.10
2022-10-25T05:46:49.055Z,17.60
2022-10-25T05:49:17.172Z,17.00
2022-10-25T05:51:45.081Z,17.70
2022-10-25T05:54:15.438Z,20.30
2022-10-25T05:56:43.751Z,19.40
2022-10-25T05:59:14.425Z,19.50
2022-10-25T06:01:45.004Z,26.90
2022-10-25T06:04:13.806Z,21.00
2022-10-25T06:06:43.657Z,18.80
2022-10-25T06:09:12.677Z,19.90
2022-10-25T06:11:40.997Z,20.20
2022-10-25T06:14:10.825Z,20.50
2022-10-25T06:16:39.166Z,20.00
2022-10-25T06:19:09.071Z,32.80
2022-10-25T06:21:37.297Z,24.00
2022-10-25T06:24:05.553Z,22.60
2022-10-25T06:26:33.515Z,21.80
2022-10-25T06:29:03.127Z,22.30
2022-10-25T06:31:32.316Z,22.60
2022-10-25T06:34:01.313Z,21.80
2022-10-25T06:36:31.073Z,22.80
2022-10-25T06:39:05.455Z,22.20
2022-10-25T06:41:36.930Z,22.60
2022-10-25T06:44:07.127Z,23.50
2022-10-25T06:47:04.480Z,24.80
2022-10-25T06:51:54.226Z,25.20
2022-10-25T06:54:22.067Z,24.60
2022-10-25T06:56:50.071Z,24.00
2022-10-25T06:59:19.414Z,28.50
2022-10-25T07:01:47.487Z,25.40
2022-10-25T07:04:15.804Z,29.00
2022-10-25T07:06:43.670Z,25.50
2022-10-25T07:09:13.134Z,24.00
2022-10-25T07:11:41.290Z,22.90
2022-10-25T07:14:09.493Z,22.40
2022-10-25T07:16:37.289Z,23.00
2022-10-25T07:19:05.227Z,23.20
2022-10-25T07:21:34.079Z,24.50
2022-10-25T07:24:02.362Z,23.60
2022-10-25T07:26:34.925Z,23.50
2022-10-25T07:29:04.535Z,23.70
2022-10-25T07:31:41.500Z,25.00
2022-10-25T07:34:12.812Z,24.00
2022-10-25T07:36:41.383Z,24.70
2022-10-25T07:39:09.358Z,24.40
2022-10-25T07:41:37.102Z,25.40
2022-10-25T07:44:05.046Z,26.10
2022-10-25T07:46:32.849Z,23.50
2022-10-25T07:49:00.630Z,25.90
2022-10-25T07:51:28.594Z,26.40
2022-10-25T07:53:56.334Z,27.00
2022-10-25T07:56:24.113Z,26.00
2022-10-25T07:58:52.647Z,26.20
2022-10-25T08:01:23.143Z,27.60
2022-10-25T08:03:51.868Z,29.80
2022-10-25T08:06:21.247Z,27.00
2022-10-25T08:08:49.241Z,30.10
2022-10-25T08:11:17.696Z,27.30
2022-10-25T08:13:48.536Z,29.90
2022-10-25T08:16:16.384Z,31.20
2022-10-25T08:18:44.516Z,31.50
2022-10-25T08:21:12.716Z,32.20
2022-10-25T08:23:40.471Z,29.40
2022-10-25T08:26:08.514Z,30.50
2022-10-25T08:28:36.257Z,33.00
2022-10-25T08:31:04.658Z,31.90
2022-10-25T08:33:33.421Z,31.50
2022-10-25T08:36:02.571Z,30.90
2022-10-25T08:38:30.366Z,32.20
2022-10-25T08:41:19.137Z,32.80
2022-10-25T08:44:20.977Z,33.80
2022-10-25T08:47:29.723Z,34.60
2022-10-25T08:50:06.618Z,35.70
2022-10-25T08:52:41.270Z,34.20
2022-10-25T08:55:16.926Z,33.40
2022-10-25T08:57:47.608Z,35.10
2022-10-25T09:00:22.526Z,35.00
2022-10-25T09:02:54.287Z,34.50
2022-10-25T09:05:34.580Z,33.30
2022-10-25T09:08:28.868Z,36.70
2022-10-25T09:11:15.194Z,33.70
2022-10-25T09:14:00.160Z,35.80
2022-10-25T09:16:49.726Z,33.80
2022-10-25T09:19:21.285Z,33.70
2022-10-25T09:22:01.809Z,38.80
2022-10-25T09:24:47.836Z,35.10
2022-10-25T09:27:27.237Z,35.20
2022-10-25T09:30:11.910Z,33.90
2022-10-25T09:32:48.807Z,35.70
2022-10-25T09:35:53.477Z,33.30
2022-10-25T09:38:25.730Z,34.00
2022-10-25T09:40:56.981Z,33.90
2022-10-25T09:43:35.965Z,34.10
2022-10-25T09:46:18.921Z,37.30
2022-10-25T09:48:55.378Z,37.30
2022-10-25T09:51:36.013Z,37.60
2022-10-25T09:54:15.147Z,44.50
2022-10-25T09:56:43.000Z,50.20
2022-10-25T09:59:14.401Z,40.80
2022-10-25T10:01:42.648Z,38.20
2022-10-25T10:04:26.330Z,39.90
2022-10-25T10:06:59.241Z,36.50
2022-10-25T10:09:29.954Z,37.10
2022-10-25T10:12:01.033Z,32.60
2022-10-25T10:14:40.420Z,34.00
2022-10-25T10:17:15.460Z,34.90
2022-10-25T10:19:44.045Z,30.60
2022-10-25T10:22:16.881Z,31.50
2022-10-25T10:25:01.744Z,31.90
2022-10-25T10:27:29.541Z,31.80
2022-10-25T10:30:06.368Z,31.00
2022-10-25T10:35:34.017Z,29.80
2022-10-25T10:38:21.766Z,29.20
2022-10-25T10:40:52.008Z,26.50
2022-10-25T10:43:33.991Z,25.10
2022-10-25T10:46:05.411Z,22.90
2022-10-25T10:48:42.054Z,23.60
2022-10-25T10:51:32.070Z,25.30
2022-10-25T10:54:24.502Z,23.30
2022-10-25T10:57:00.631Z,22.20
2022-10-25T10:59:32.866Z,22.40
2022-10-25T11:02:36.419Z,22.80
2022-10-25T11:05:28.030Z,19.70
2022-10-25T11:07:58.214Z,21.30
2022-10-25T11:10:29.160Z,22.30
2022-10-25T11:13:22.905Z,21.40
2022-10-25T11:16:11.876Z,21.00
2022-10-25T11:18:58.220Z,20.20
2022-10-25T11:21:49.790Z,21.10
2022-10-25T11:24:44.966Z,19.70
2022-10-25T11:27:18.650Z,20.00
2022-10-25T11:30:08.238Z,19.60
2022-10-25T11:32:54.889Z,20.80
2022-10-25T11:35:44.580Z,23.40
2022-10-25T11:38:21.595Z,22.70
2022-10-25T11:40:52.423Z,22.70
2022-10-25T11:46:02.512Z,23.30
2022-10-25T11:48:39.270Z,23.20
2022-10-25T11:51:34.736Z,22.30
2022-10-25T11:54:27.079Z,22.20
2022-10-25T11:57:09.955Z,21.70
2022-10-25T11:59:46.898Z,22.90
2022-10-25T12:02:36.614Z,23.50
2022-10-25T12:05:58.886Z,24.50
2022-10-25T12:08:49.468Z,23.50
2022-10-25T12:11:24.344Z,23.00
2022-10-25T12:14:05.117Z,26.80
2022-10-25T12:16:36.357Z,30.70
2022-10-25T12:19:09.031Z,45.90
2022-10-25T12:21:51.294Z,34.70
2022-10-25T12:24:41.439Z,27.60
2022-10-25T12:27:11.669Z,29.30
2022-10-25T12:29:48.228Z,27.60
2022-10-25T12:32:29.260Z,26.90
2022-10-25T12:34:59.445Z,27.50
2022-10-25T12:37:38.126Z,31.80
2022-10-25T12:40:14.117Z,30.60
2022-10-25T12:42:47.367Z,25.70
2022-10-25T12:46:03.515Z,25.10
2022-10-25T12:49:13.402Z,24.60
2022-10-25T12:52:11.859Z,24.40
2022-10-25T12:55:09.927Z,25.30
2022-10-25T12:57:43.685Z,27.10
2022-10-25T13:00:22.784Z,30.70
2022-10-25T13:03:27.794Z,28.40
2022-10-25T13:06:04.708Z,27.00
2022-10-25T13:08:33.644Z,27.20
2022-10-25T13:11:07.871Z,26.90
2022-10-25T13:13:41.373Z,27.40
2022-10-25T13:16:10.961Z,26.80
2022-10-25T13:18:47.580Z,26.20
2022-10-25T13:21:16.455Z,28.10
2022-10-25T13:23:45.715Z,28.30
2022-10-25T13:26:16.825Z,26.70
2022-10-25T13:28:45.491Z,26.60
2022-10-25T13:31:35.069Z,27.20
2022-10-25T13:34:12.078Z,27.80
2022-10-25T13:36:54.703Z,27.10
2022-10-25T13:39:42.374Z,26.20
2022-10-25T13:42:16.211Z,27.20
2022-10-25T13:45:09.006Z,26.70
2022-10-25T13:47:48.557Z,28.80
2022-10-25T13:50:28.584Z,28.70
2022-10-25T13:53:02.954Z,30.60
2022-10-25T13:55:37.612Z,30.30
2022-10-25T13:58:31.738Z,29.90
2022-10-25T14:01:15.435Z,28.70
2022-10-25T14:04:01.908Z,27.20
2022-10-25T14:06:31.649Z,26.60
2022-10-25T14:09:18.035Z,26.80
2022-10-25T14:11:52.568Z,27.00
2022-10-25T14:14:34.955Z,28.30
2022-10-25T14:17:15.346Z,28.20
2022-10-25T14:19:50.162Z,28.50
2022-10-25T14:22:33.676Z,28.10
2022-10-25T14:25:14.864Z,27.90
2022-10-25T14:27:42.624Z,27.20
2022-10-25T14:30:25.289Z,27.80
2022-10-25T14:32:58.947Z,27.10
2022-10-25T14:35:35.432Z,28.10
2022-10-25T14:38:15.266Z,28.70
2022-10-25T14:40:51.041Z,31.00
2022-10-25T14:43:24.307Z,29.90
2022-10-25T14:46:13.658Z,30.20
2022-10-25T14:48:45.189Z,28.50
2022-10-25T14:51:25.124Z,30.30
2022-10-25T14:53:58.884Z,31.20
2022-10-25T14:56:35.409Z,32.70
2022-10-25T14:59:06.744Z,38.00
2022-10-25T15:01:35.382Z,37.20
2022-10-25T15:04:03.462Z,35.80
2022-10-25T15:06:32.609Z,38.60
2022-10-25T15:09:40.809Z,37.30
2022-10-25T15:12:29.070Z,37.80
2022-10-25T15:15:18.590Z,34.60
2022-10-25T15:17:53.356Z,33.50
2022-10-25T15:20:21.273Z,31.80
2022-10-25T15:22:50.693Z,29.90
2022-10-25T15:25:22.148Z,27.60
2022-10-25T15:30:41.891Z,26.60
2022-10-25T15:33:13.249Z,25.50
2022-10-25T15:35:52.140Z,24.90
2022-10-25T15:38:20.133Z,24.50
2022-10-25T15:40:48.837Z,25.10
2022-10-25T15:43:16.666Z,30.20
2022-10-25T15:45:46.224Z,28.00
2022-10-25T15:48:19.318Z,28.50
2022-10-25T15:50:57.985Z,32.00
2022-10-25T15:53:25.963Z,30.20
2022-10-25T15:55:53.914Z,28.00
2022-10-25T15:58:21.726Z,27.50
2022-10-25T16:00:52.130Z,28.90
2022-10-25T16:03:22.197Z,32.10
2022-10-25T16:05:51.813Z,36.30
2022-10-25T16:08:19.649Z,30.30
2022-10-25T16:10:47.762Z,27.60
2022-10-25T16:13:23.240Z,27.50
2022-10-25T16:15:51.110Z,29.10
2022-10-25T16:18:19.111Z,28.00
2022-10-25T16:20:47.353Z,28.80
2022-10-25T16:23:15.077Z,26.20
2022-10-25T16:25:43.221Z,26.40
2022-10-25T16:28:14.566Z,26.00
2022-10-25T16:30:43.904Z,25.90
2022-10-25T16:33:11.726Z,29.80
2022-10-25T16:35:41.533Z,28.80
2022-10-25T16:40:38.610Z,41.70
2022-10-25T16:43:06.420Z,39.00
2022-10-25T16:45:37.801Z,30.90
2022-10-25T16:48:06.538Z,30.10
2022-10-25T16:50:35.239Z,27.20
2022-10-25T16:53:09.326Z,41.30
2022-10-25T16:55:37.581Z,39.00
2022-10-25T16:58:05.423Z,46.00
2022-10-25T17:00:35.655Z,46.70
2022-10-25T17:03:03.772Z,36.50
2022-10-25T17:05:34.974Z,31.20
2022-10-25T17:08:02.773Z,28.70
2022-10-25T17:10:30.690Z,26.40
2022-10-25T17:13:03.264Z,24.60
2022-10-25T17:15:32.013Z,30.60
2022-10-25T17:17:59.745Z,30.40
2022-10-25T17:20:27.789Z,27.80
2022-10-25T17:22:55.557Z,27.30
2022-10-25T17:25:23.316Z,26.70
2022-10-25T17:27:52.506Z,24.30
2022-10-25T17:30:20.733Z,21.90
2022-10-25T17:32:48.683Z,23.10
2022-10-25T17:35:16.550Z,22.20
2022-10-25T17:37:44.683Z,20.80
2022-10-25T17:40:18.972Z,22.90
2022-10-25T17:42:49.557Z,23.60
2022-10-25T17:45:21.902Z,24.70
2022-10-25T17:47:50.578Z,22.20
2022-10-25T17:50:20.195Z,23.40
2022-10-25T17:52:50.206Z,23.30
2022-10-25T17:55:18.067Z,24.90
2022-10-25T17:57:47.180Z,24.70
2022-10-25T18:00:16.031Z,24.50
2022-10-25T18:02:50.413Z,21.80
2022-10-25T18:05:21.139Z,21.40
2022-10-25T18:07:50.083Z,20.20
2022-10-25T18:10:18.821Z,20.30
2022-10-25T18:12:46.954Z,21.60
2022-10-25T18:15:15.346Z,22.20
2022-10-25T18:17:46.578Z,22.40
2022-10-25T18:20:15.064Z,23.60
2022-10-25T18:22:43.441Z,22.80
2022-10-25T18:25:11.572Z,23.50
2022-10-25T18:27:39.493Z,22.10
2022-10-25T18:30:08.252Z,22.30
2022-10-25T18:32:36.220Z,23.20
2022-10-25T18:35:04.518Z,22.20
2022-10-25T18:37:32.349Z,23.20
2022-10-25T18:40:00.200Z,21.10
2022-10-25T18:42:28.237Z,21.10
2022-10-25T18:44:56.016Z,22.40
2022-10-25T18:47:23.882Z,22.00
2022-10-25T18:49:51.702Z,21.70
2022-10-25T18:52:20.065Z,22.40
2022-10-25T18:54:48.333Z,21.70
2022-10-25T18:57:16.214Z,22.70
2022-10-25T18:59:43.946Z,22.10
2022-10-25T19:02:12.043Z,22.90
2022-10-25T19:04:39.870Z,21.50
2022-10-25T19:07:07.672Z,22.90
2022-10-25T19:09:35.622Z,21.60
2022-10-25T19:12:03.483Z,21.70
2022-10-25T19:14:31.373Z,22.30
2022-10-25T19:16:59.129Z,21.80
2022-10-25T19:19:27.117Z,22.20
2022-10-25T19:21:55.062Z,22.90
2022-10-25T19:24:23.043Z,22.30
2022-10-25T19:26:50.893Z,23.70
2022-10-25T19:29:18.635Z,22.20
2022-10-25T19:31:46.584Z,23.00
2022-10-25T19:34:14.383Z,22.50
2022-10-25T19:36:42.145Z,23.00
2022-10-25T19:39:10.577Z,22.10
2022-10-25T19:41:38.306Z,22.00
2022-10-25T19:44:06.130Z,22.60
2022-10-25T19:46:33.960Z,21.30
2022-10-25T19:49:01.857Z,21.80
2022-10-25T19:51:29.669Z,21.20
2022-10-25T19:53:57.515Z,20.70
2022-10-25T19:56:25.326Z,22.10
2022-10-25T19:58:53.123Z,24.40
2022-10-25T20:01:28.942Z,24.20
2022-10-25T20:03:57.945Z,24.40
2022-10-25T20:06:31.830Z,25.50
2022-10-25T20:09:01.476Z,24.40
2022-10-25T20:11:29.524Z,23.50
2022-10-25T20:14:00.081Z,23.00
2022-10-25T20:16:29.481Z,22.90
2022-10-25T20:19:00.245Z,22.60
2022-10-25T20:21:33.938Z,21.90
2022-10-25T20:24:05.858Z,21.80
2022-10-25T20:26:39.126Z,21.90
2022-10-25T20:29:16.984Z,20.40
2022-10-25T20:31:48.890Z,22.00
2022-10-25T20:34:17.644Z,21.40
2022-10-25T20:36:46.227Z,23.50
2022-10-25T20:39:14.301Z,22.50
2022-10-25T20:41:42.329Z,21.90
2022-10-25T20:44:10.633Z,21.50
2022-10-25T20:46:38.301Z,21.10
2022-10-25T20:49:07.514Z,19.80
2022-10-25T20:51:35.369Z,19.60
2022-10-25T20:54:09.592Z,18.10
2022-10-25T20:56:39.302Z,19.00
2022-10-25T20:59:08.068Z,19.30
2022-10-25T21:01:36.345Z,19.90
2022-10-25T21:04:04.675Z,19.10
2022-10-25T21:06:35.766Z,19.80
2022-10-25T21:09:03.524Z,19.70
2022-10-25T21:11:32.689Z,19.20
2022-10-25T21:14:00.583Z,18.30
2022-10-25T21:16:28.319Z,18.40
2022-10-25T21:18:56.173Z,18.20
2022-10-25T21:21:23.920Z,17.90
2022-10-25T21:23:55.755Z,17.60
2022-10-25T21:26:24.070Z,18.90
2022-10-25T21:28:51.854Z,18.40
2022-10-25T21:31:19.615Z,19.10
2022-10-25T21:33:50.058Z,23.30
2022-10-25T21:36:20.900Z,21.90
2022-10-25T21:38:48.879Z,23.30
2022-10-25T21:41:20.733Z,25.20
2022-10-25T21:43:50.998Z,30.40
2022-10-25T21:46:20.862Z,36.30
2022-10-25T21:48:52.693Z,32.40
2022-10-25T21:51:22.037Z,31.60
2022-10-25T21:53:49.963Z,37.50
2022-10-25T21:56:20.121Z,58.00
2022-10-25T21:58:49.833Z,67.50
2022-10-25T22:01:20.909Z,67.40
2022-10-25T22:03:49.214Z,69.90
2022-10-25T22:06:20.143Z,65.30
2022-10-25T22:11:18.424Z,64.00
2022-10-25T22:13:47.656Z,65.10
2022-10-25T22:16:19.882Z,64.00
2022-10-25T22:18:57.756Z,47.30
2022-10-25T22:21:28.296Z,49.10
2022-10-25T22:23:56.501Z,48.00
2022-10-25T22:26:25.949Z,45.30
2022-10-25T22:28:55.839Z,38.60
2022-10-25T22:31:24.396Z,35.10
2022-10-25T22:33:54.702Z,34.60
2022-10-25T22:36:25.374Z,31.10
2022-10-25T22:38:53.312Z,31.80
2022-10-25T22:41:23.193Z,30.80
2022-10-25T22:43:51.808Z,30.30
2022-10-25T22:46:25.650Z,31.50
2022-10-25T22:48:55.406Z,29.40
2022-10-25T22:51:25.332Z,26.60
2022-10-25T22:53:53.591Z,28.40
2022-10-25T22:56:26.661Z,29.20
2022-10-25T22:58:56.833Z,28.50
2022-10-25T23:01:30.898Z,25.50
2022-10-25T23:03:59.984Z,21.80
2022-10-25T23:06:29.968Z,22.80
2022-10-25T23:08:59.982Z,23.50
2022-10-25T23:11:30.060Z,24.80
2022-10-25T23:13:58.560Z,27.30
2022-10-25T23:16:27.629Z,35.10
2022-10-25T23:18:55.845Z,35.90
2022-10-25T23:21:26.221Z,37.00
2022-10-25T23:23:56.104Z,36.80
2022-10-25T23:26:36.378Z,31.30
2022-10-25T23:29:05.089Z,28.40
2022-10-25T23:31:32.856Z,25.00
2022-10-25T23:34:01.006Z,21.00
2022-10-25T23:36:37.404Z,20.40
2022-10-25T23:39:07.585Z,20.80
2022-10-25T23:41:35.660Z,21.20
2022-10-25T23:44:03.745Z,21.10
2022-10-25T23:46:31.560Z,19.70
2022-10-25T23:48:59.322Z,19.80
2022-10-25T23:51:27.079Z,19.70
2022-10-25T23:53:54.896Z,17.80
2022-10-25T23:56:22.756Z,17.30
2022-10-25T23:58:53.813Z,17.40
